Time;durP1;ratioP1;P1;durP2;ratioP2;P2;SDS_P1;SDS_P2;PMS_P1;PMS_P2;Temp;Humidity;BMP_temperature;BMP_pressure;BME280_temperature;BME280_humidity;BME280_pressure;Samples;Min_cycle;Max_cycle;Signal;HPM_P1;HPM_P2
2023/05/16 00:00:48;;;;;;;;;2.50;2.50;;;;;10.29;73.13;101847.56;5060744;28;45355;-66
2023/05/16 00:03:13;;;;;;;;;4.50;4.00;;;;;10.21;73.60;101834.47;5059951;28;46303;-66
2023/05/16 00:05:39;;;;;;;;;5.00;2.50;;;;;10.21;73.55;101830.94;5060341;28;45303;-66
2023/05/16 00:08:04;;;;;;;;;7.25;5.25;;;;;10.26;73.25;101845.81;5060084;28;45233;-66
2023/05/16 00:10:30;;;;;;;;;3.50;3.00;;;;;10.19;73.21;101837.97;5060247;28;45507;-66
2023/05/16 00:12:56;;;;;;;;;5.00;3.50;;;;;10.17;73.53;101834.47;5059975;28;45357;-66
2023/05/16 00:15:22;;;;;;;;;3.75;2.00;;;;;10.25;73.35;101851.09;5059770;28;45443;-66
2023/05/16 00:17:48;;;;;;;;;2.00;2.00;;;;;10.23;73.48;101848.47;5060202;27;45298;-66
2023/05/16 00:20:16;;;;;;;;;3.00;2.75;;;;;10.10;73.53;101821.31;5055706;28;45312;-66
2023/05/16 00:22:42;;;;;;;;;1.75;1.75;;;;;10.19;73.75;101846.72;5056480;27;46708;-66
2023/05/16 00:25:08;;;;;;;;;6.50;0.75;;;;;10.10;73.33;101823.94;5056654;28;45289;-66
2023/05/16 00:27:36;;;;;;;;;4.75;3.00;;;;;10.18;73.54;101852.00;5056506;28;45419;-66
2023/05/16 00:30:02;;;;;;;;;7.25;3.00;;;;;10.08;73.89;101832.75;5056530;27;45413;-66
2023/05/16 00:32:27;;;;;;;;;3.25;3.00;;;;;10.13;74.06;101846.75;5056242;28;47249;-66
2023/05/16 00:34:53;;;;;;;;;3.00;3.00;;;;;10.15;73.54;101841.47;5056235;28;45330;-66
2023/05/16 00:37:18;;;;;;;;;5.00;2.75;;;;;10.07;74.10;101831.84;5055378;28;45347;-66
2023/05/16 00:39:43;;;;;;;;;4.25;3.00;;;;;10.03;73.68;101835.38;5036505;28;45234;-66
2023/05/16 00:42:09;;;;;;;;;4.25;2.00;;;;;9.97;73.96;101824.00;5036144;28;46503;-66
2023/05/16 00:44:34;;;;;;;;;5.75;3.25;;;;;10.06;74.04;101843.28;5036191;27;45497;-66
2023/05/16 00:47:01;;;;;;;;;4.50;1.25;;;;;10.08;74.02;101840.66;5035932;28;45200;-66
2023/05/16 00:49:27;;;;;;;;;3.75;3.00;;;;;9.95;74.22;101813.50;5036475;27;45217;-66
2023/05/16 00:51:53;;;;;;;;;7.50;3.00;;;;;10.00;74.28;101816.97;5035641;28;46084;-66
2023/05/16 00:54:21;;;;;;;;;3.00;2.00;;;;;9.99;74.05;101819.59;5035765;28;45419;-66
2023/05/16 00:56:47;;;;;;;;;1.75;0.00;;;;;9.94;73.74;101806.47;5037480;27;45448;-66
2023/05/16 00:59:12;;;;;;;;;3.25;3.00;;;;;10.01;74.48;101809.97;5035978;28;45412;-66
2023/05/16 01:01:39;;;;;;;;;4.25;3.00;;;;;10.00;74.43;101816.97;5036018;28;45318;-66
2023/05/16 01:04:05;;;;;;;;;4.00;4.00;;;;;9.94;74.57;101817.00;5035808;28;45217;-66
2023/05/16 01:06:33;;;;;;;;;2.50;2.00;;;;;9.94;74.39;101817.00;5035778;28;45469;-66
2023/05/16 01:08:58;;;;;;;;;4.25;2.75;;;;;9.95;74.43;101818.75;5036129;28;45482;-66
2023/05/16 01:11:35;;;;;;;;;4.00;2.00;;;;;9.97;74.52;101827.50;5035484;28;46261;-66
2023/05/16 01:14:42;;;;;;;;;4.00;2.50;;;;;9.96;74.25;101831.00;5035679;28;45315;-66
2023/05/16 01:17:19;;;;;;;;;4.00;2.50;;;;;9.93;74.51;101826.66;5036641;28;45401;-66
2023/05/16 01:20:14;;;;;;;;;6.50;2.75;;;;;9.93;74.36;101834.53;5036785;28;45329;-66
2023/05/16 01:22:46;;;;;;;;;4.75;4.00;;;;;9.97;74.47;101845.91;5036282;28;46378;-66
2023/05/16 01:25:27;;;;;;;;;5.50;3.25;;;;;9.97;74.59;101853.81;5036421;28;45388;-66
2023/05/16 01:27:53;;;;;;;;;2.25;2.25;;;;;9.91;74.49;101841.53;5036488;28;45354;-66
2023/05/16 01:30:19;;;;;;;;;5.00;3.00;;;;;9.92;74.21;101851.19;5036167;28;45277;-66
2023/05/16 01:32:45;;;;;;;;;8.00;2.50;;;;;9.88;74.40;101838.94;5036072;28;46109;-66
2023/05/16 01:35:14;;;;;;;;;5.00;3.00;;;;;9.91;74.44;101852.06;5036402;28;45419;-66
2023/05/16 01:37:54;;;;;;;;;5.00;2.00;;;;;9.89;74.20;101850.31;5036304;28;45547;-66
2023/05/16 01:40:44;;;;;;;;;3.25;2.00;;;;;9.86;74.72;101852.97;5036229;28;45438;-66
2023/05/16 01:43:15;;;;;;;;;2.00;2.00;;;;;9.86;74.55;101859.13;5035989;28;45447;-66
2023/05/16 01:45:50;;;;;;;;;4.00;3.00;;;;;9.84;74.62;101860.00;5035978;28;45531;-66
2023/05/16 01:48:25;;;;;;;;;4.00;3.00;;;;;9.83;74.55;101858.22;5036299;28;45321;-66
2023/05/16 01:50:56;;;;;;;;;2.75;2.75;;;;;9.82;74.89;101853.88;5035736;28;45555;-66
2023/05/16 01:53:28;;;;;;;;;3.00;1.75;;;;;9.73;74.72;101850.38;5035040;28;46172;-66
2023/05/16 01:55:57;;;;;;;;;4.00;1.75;;;;;9.71;74.50;101848.59;5035222;28;45317;-66
2023/05/16 01:58:26;;;;;;;;;4.25;2.00;;;;;9.77;74.70;101859.09;5035275;28;45217;-66
2023/05/16 02:00:52;;;;;;;;;3.75;3.75;;;;;9.74;74.79;101865.28;5035447;28;45280;-66
2023/05/16 02:03:18;;;;;;;;;5.00;2.00;;;;;9.74;74.90;101861.75;5034971;28;46512;-66
2023/05/16 02:05:43;;;;;;;;;5.00;3.25;;;;;9.68;74.93;101844.22;5035070;28;45354;-65
2023/05/16 02:08:09;;;;;;;;;2.00;2.00;;;;;9.73;74.93;101857.34;5035200;28;45355;-66
2023/05/16 02:10:34;;;;;;;;;2.75;2.25;;;;;9.73;74.87;101866.16;5035521;28;45241;-66
2023/05/16 02:13:00;;;;;;;;;3.00;2.00;;;;;9.68;74.79;101859.13;5035133;27;45355;-66
2023/05/16 02:15:25;;;;;;;;;3.00;3.00;;;;;9.67;74.76;101860.00;5034981;27;45233;-66
2023/05/16 02:17:50;;;;;;;;;6.25;4.75;;;;;9.65;74.95;101862.63;5035028;28;45471;-66
2023/05/16 02:20:16;;;;;;;;;3.00;2.75;;;;;9.60;74.58;101859.16;5035222;28;45231;-66
2023/05/16 02:22:43;;;;;;;;;4.75;2.00;;;;;9.60;74.75;101856.53;5034788;28;46442;-66
2023/05/16 02:25:09;;;;;;;;;9.00;4.00;;;;;9.53;74.90;101849.50;5034864;27;45485;-66
2023/05/16 02:27:34;;;;;;;;;8.00;4.00;;;;;9.55;74.63;101864.38;5035094;28;45224;-66
2023/05/16 02:30:00;;;;;;;;;4.25;3.50;;;;;9.59;74.69;101868.78;5034932;27;45343;-66
2023/05/16 02:32:25;;;;;;;;;6.50;4.50;;;;;9.33;74.79;101828.47;5034547;28;45559;-66
2023/05/16 02:34:51;;;;;;;;;3.00;3.00;;;;;9.52;75.19;101868.78;5034917;28;45403;-66
2023/05/16 02:37:16;;;;;;;;;4.00;3.00;;;;;9.53;75.14;101865.28;5034842;28;45644;-66
2023/05/16 02:39:41;;;;;;;;;3.00;3.00;;;;;9.56;74.90;101875.78;5035006;28;45298;-66
2023/05/16 02:42:07;;;;;;;;;4.00;2.50;;;;;9.49;75.12;101874.03;5033440;28;46443;-66
2023/05/16 02:44:32;;;;;;;;;4.00;3.00;;;;;9.55;74.97;101888.06;5034414;28;45509;-66
2023/05/16 02:46:58;;;;;;;;;6.25;4.00;;;;;9.55;75.49;101893.31;5034565;28;45768;-66
2023/05/16 02:49:24;;;;;;;;;4.00;2.25;;;;;9.53;75.37;101879.28;5034838;28;45319;-66
2023/05/16 02:51:49;;;;;;;;;3.00;2.25;;;;;9.53;74.80;101879.28;5034435;28;45975;-66
2023/05/16 02:54:14;;;;;;;;;9.75;3.00;;;;;9.46;75.11;101866.16;5034337;28;45343;-66
2023/05/16 02:56:40;;;;;;;;;3.75;3.75;;;;;9.49;74.90;101874.91;5034595;28;45323;-66
2023/05/16 02:59:05;;;;;;;;;4.00;2.25;;;;;9.53;74.85;101881.94;5034631;28;45313;-66
2023/05/16 03:01:31;;;;;;;;;4.50;2.00;;;;;9.50;75.11;101884.56;5034287;28;46023;-66
2023/05/16 03:03:56;;;;;;;;;8.00;5.75;;;;;9.54;75.07;101890.69;5034414;28;45142;-66
2023/05/16 03:06:22;;;;;;;;;6.00;4.00;;;;;9.50;75.30;101889.81;5034356;28;45425;-66
2023/05/16 03:08:47;;;;;;;;;1.50;1.50;;;;;9.52;74.75;101893.31;5034619;28;45174;-66
2023/05/16 03:11:13;;;;;;;;;3.75;2.25;;;;;9.52;74.98;101897.72;5034172;28;46735;-66
2023/05/16 03:13:39;;;;;;;;;2.00;2.00;;;;;9.51;74.91;101898.56;5034086;28;45312;-66
2023/05/16 03:16:05;;;;;;;;;3.25;3.00;;;;;9.51;74.98;101901.19;5034090;28;45449;-66
2023/05/16 03:18:30;;;;;;;;;3.75;2.00;;;;;9.41;74.89;101882.81;5034368;28;45358;-66
2023/05/16 03:20:56;;;;;;;;;6.00;4.00;;;;;9.46;74.90;101888.06;5034024;28;45365;-66
2023/05/16 03:23:22;;;;;;;;;2.00;2.00;;;;;9.42;74.47;101875.78;5034242;28;46442;-66
2023/05/16 03:25:47;;;;;;;;;3.00;3.00;;;;;9.47;74.34;101881.03;5034076;28;45233;-66
2023/05/16 03:28:13;;;;;;;;;4.50;3.00;;;;;9.45;74.31;101890.69;5034162;28;45452;-65
2023/05/16 03:30:38;;;;;;;;;6.25;3.50;;;;;9.48;74.61;101895.94;5033651;28;46239;-66
2023/05/16 03:33:05;;;;;;;;;4.75;3.00;;;;;9.47;74.38;101904.69;5033701;28;45365;-66
2023/05/16 03:35:31;;;;;;;;;3.00;3.00;;;;;9.45;74.50;101903.84;5022784;28;45356;-66
2023/05/16 03:37:57;;;;;;;;;5.75;1.75;;;;;9.36;74.74;101888.94;5024656;28;45407;-66
2023/05/16 03:40:22;;;;;;;;;2.75;2.75;;;;;9.42;74.89;101899.44;5013810;28;46626;-66
2023/05/16 03:42:47;;;;;;;;;3.00;2.00;;;;;9.25;74.70;101873.16;5029204;28;45930;-66
2023/05/16 03:45:13;;;;;;;;;3.50;1.00;;;;;9.35;74.78;101901.22;5013586;28;45441;-66
2023/05/16 03:47:38;;;;;;;;;3.00;3.00;;;;;9.30;75.04;101891.56;5014095;28;45334;-66
2023/05/16 03:50:04;;;;;;;;;4.00;2.75;;;;;9.39;74.73;101912.59;5013585;28;46113;-66
2023/05/16 03:52:30;;;;;;;;;4.00;4.00;;;;;9.39;74.89;101916.09;4995914;28;45829;-66
2023/05/16 03:54:55;;;;;;;;;3.50;3.00;;;;;9.31;74.81;101909.97;5016709;28;45814;-66
2023/05/16 03:57:21;;;;;;;;;5.00;4.00;;;;;9.12;74.77;101876.63;5017077;28;45355;-66
2023/05/16 03:59:46;;;;;;;;;6.00;3.75;;;;;9.31;74.95;101909.06;5016626;28;45565;-66
2023/05/16 04:02:12;;;;;;;;;5.00;4.75;;;;;9.34;75.02;101920.47;5016590;28;45347;-66
2023/05/16 04:04:37;;;;;;;;;2.00;2.00;;;;;9.30;75.02;101907.34;4999249;28;45379;-66
2023/05/16 04:07:02;;;;;;;;;5.00;3.00;;;;;9.26;75.24;101918.72;5016929;28;45441;-66
2023/05/16 04:09:28;;;;;;;;;3.75;3.00;;;;;9.29;75.33;101922.22;5016596;28;46613;-66
2023/05/16 04:11:55;;;;;;;;;8.50;5.50;;;;;9.21;76.11;101916.09;5016419;28;45318;-66
2023/05/16 04:14:21;;;;;;;;;6.00;4.50;;;;;9.23;76.20;101917.81;5016710;28;45357;-66
2023/05/16 04:16:46;;;;;;;;;2.75;2.25;;;;;9.28;75.80;101924.84;5016617;28;45456;-66
2023/05/16 04:19:11;;;;;;;;;5.50;3.00;;;;;9.32;75.71;101929.22;5017931;27;45271;-66
2023/05/16 04:21:37;;;;;;;;;4.50;4.50;;;;;9.36;75.53;101929.22;5016531;28;45290;-66
2023/05/16 04:24:02;;;;;;;;;3.00;3.00;;;;;9.35;75.36;101930.13;5016565;28;45296;-66
2023/05/16 04:26:29;;;;;;;;;3.75;2.75;;;;;9.37;75.46;101928.34;5017844;27;45609;-66
2023/05/16 04:28:54;;;;;;;;;5.25;4.00;;;;;9.29;75.16;101922.22;5016223;28;47303;-66
2023/05/16 04:31:21;;;;;;;;;4.00;2.00;;;;;9.36;75.18;101923.97;5016121;28;45311;-66
2023/05/16 04:33:47;;;;;;;;;5.00;4.00;;;;;9.36;75.14;101920.47;5016334;28;45308;-67
2023/05/16 04:36:12;;;;;;;;;4.25;4.25;;;;;9.39;75.19;101923.97;5016674;28;45366;-65
2023/05/16 04:38:38;;;;;;;;;11.00;7.00;;;;;9.35;75.15;101916.97;5016177;28;46643;-66
2023/05/16 04:41:03;;;;;;;;;5.50;4.00;;;;;9.37;74.68;101917.84;5016248;28;45347;-66
2023/05/16 04:43:29;;;;;;;;;3.00;3.00;;;;;9.44;74.61;101933.63;5016454;28;45836;-66
2023/05/16 04:45:54;;;;;;;;;3.25;3.00;;;;;9.49;74.69;101937.16;5015890;28;45489;-66
2023/05/16 04:48:20;;;;;;;;;5.75;4.75;;;;;9.55;74.55;101945.03;5015998;28;45354;-66
2023/05/16 04:50:45;;;;;;;;;5.00;4.25;;;;;9.53;74.48;101933.66;5016107;28;45292;-66
2023/05/16 04:53:11;;;;;;;;;4.25;3.00;;;;;9.54;74.18;101933.66;5016041;28;45263;-66
2023/05/16 04:55:36;;;;;;;;;4.00;3.50;;;;;9.59;73.79;101928.38;5016392;28;45224;-66
2023/05/16 04:58:02;;;;;;;;;7.50;6.00;;;;;9.49;73.76;101913.47;5015839;28;46382;-66
2023/05/16 05:00:27;;;;;;;;;3.75;3.75;;;;;9.73;73.90;101950.31;5015730;28;45262;-66
2023/05/16 05:02:52;;;;;;;;;4.00;4.00;;;;;9.76;73.41;101944.19;5016033;28;45275;-66
2023/05/16 05:05:18;;;;;;;;;3.25;3.25;;;;;9.86;73.00;101930.13;5015142;28;45383;-66
2023/05/16 05:07:43;;;;;;;;;3.75;3.75;;;;;10.16;72.30;101940.63;5015494;28;45325;-66
2023/05/16 05:10:10;;;;;;;;;5.00;4.00;;;;;10.36;70.97;101946.75;5016102;28;45409;-66
2023/05/16 05:12:36;;;;;;;;;3.00;3.00;;;;;10.40;70.97;101955.53;5015604;28;45619;-66
2023/05/16 05:15:01;;;;;;;;;2.00;2.00;;;;;10.37;70.24;101955.50;5015977;28;45517;-66
2023/05/16 05:17:27;;;;;;;;;3.25;3.25;;;;;10.35;70.63;101958.16;5015608;28;45393;-66
2023/05/16 05:19:52;;;;;;;;;2.00;2.00;;;;;10.34;70.47;101951.16;5015522;28;45616;-66
2023/05/16 05:22:17;;;;;;;;;4.00;4.00;;;;;10.25;70.69;101933.59;5015418;28;45386;-66
2023/05/16 05:24:43;;;;;;;;;3.50;2.50;;;;;10.29;70.36;101947.59;5015971;28;45321;-66
2023/05/16 05:27:08;;;;;;;;;4.50;2.25;;;;;10.41;70.47;101957.25;5015378;28;45793;-66
2023/05/16 05:29:34;;;;;;;;;3.00;3.00;;;;;10.40;71.02;101942.38;5015434;28;45416;-67
2023/05/16 05:31:59;;;;;;;;;7.00;5.00;;;;;10.50;70.99;101956.34;4997611;28;45632;-66
2023/05/16 05:34:24;;;;;;;;;6.00;4.00;;;;;10.53;70.85;101958.97;5015976;28;45315;-66
2023/05/16 05:36:50;;;;;;;;;4.75;4.50;;;;;10.52;70.29;101946.72;5015124;28;46381;-67
2023/05/16 05:39:15;;;;;;;;;4.25;2.25;;;;;10.62;70.54;101956.34;5015661;28;45406;-66
2023/05/16 05:41:41;;;;;;;;;8.00;3.00;;;;;10.64;70.48;101962.47;5015453;28;45385;-66
2023/05/16 05:44:06;;;;;;;;;5.00;3.75;;;;;10.68;70.06;101948.41;5015573;28;45316;-66
2023/05/16 05:46:32;;;;;;;;;4.25;3.00;;;;;10.85;69.94;101966.78;5014954;28;46129;-67
2023/05/16 05:48:58;;;;;;;;;5.50;3.50;;;;;11.31;68.42;101963.91;5015417;28;45313;-66
2023/05/16 05:51:24;;;;;;;;;5.00;4.00;;;;;11.48;66.72;101961.16;5015092;28;45323;-67
2023/05/16 05:53:50;;;;;;;;;2.75;2.75;;;;;11.77;66.37;101954.78;5015582;28;45359;-67
2023/05/16 05:56:16;;;;;;;;;3.00;3.00;;;;;11.72;65.80;101967.16;5015183;28;46099;-67
2023/05/16 05:58:41;;;;;;;;;6.75;3.00;;;;;11.54;65.74;101962.00;5015569;28;45380;-67
2023/05/16 06:01:06;;;;;;;;;6.00;3.00;;;;;11.28;66.47;101944.59;5014995;28;45361;-66
2023/05/16 06:03:32;;;;;;;;;2.75;2.25;;;;;11.48;66.11;101966.41;5015313;28;45358;-66
2023/05/16 06:05:58;;;;;;;;;5.25;2.75;;;;;11.53;66.23;101982.25;5015369;28;46578;-66
2023/05/16 06:08:23;;;;;;;;;6.00;5.00;;;;;11.55;66.21;101977.81;5014959;28;45455;-67
2023/05/16 06:10:48;;;;;;;;;5.50;2.50;;;;;11.50;66.30;101974.31;5015392;28;45827;-66
2023/05/16 06:13:14;;;;;;;;;7.25;4.00;;;;;11.57;65.93;101986.59;5015213;28;45642;-67
2023/05/16 06:15:39;;;;;;;;;4.25;3.25;;;;;11.53;65.69;101981.34;5014886;28;47003;-66
2023/05/16 06:18:04;;;;;;;;;5.75;4.75;;;;;11.52;65.91;101984.84;5013490;28;45456;-66
2023/05/16 06:20:30;;;;;;;;;3.00;3.00;;;;;11.41;66.43;101971.75;5015219;28;45296;-66
2023/05/16 06:22:55;;;;;;;;;6.50;2.00;;;;;11.49;66.33;101989.28;5015328;28;45265;-66
2023/05/16 06:25:21;;;;;;;;;7.75;4.00;;;;;11.29;66.08;101946.34;5014832;28;45539;-67
2023/05/16 06:27:46;;;;;;;;;6.75;5.50;;;;;11.61;66.23;102001.50;5014557;28;45315;-67
2023/05/16 06:30:12;;;;;;;;;1.25;1.25;;;;;11.52;65.58;101977.84;5015138;28;45352;-67
2023/05/16 06:32:39;;;;;;;;;6.00;3.50;;;;;11.63;65.86;101997.13;5015002;28;45358;-66
2023/05/16 06:35:04;;;;;;;;;4.00;2.25;;;;;11.72;65.64;101997.91;5013478;28;45457;-66
2023/05/16 06:37:29;;;;;;;;;4.25;2.00;;;;;11.76;65.22;102007.56;5014318;28;45215;-66
2023/05/16 06:39:55;;;;;;;;;3.25;2.00;;;;;11.76;65.38;102002.28;5028772;28;45376;-66
2023/05/16 06:42:20;;;;;;;;;3.50;2.25;;;;;11.85;64.82;102015.44;5014958;28;45275;-67
2023/05/16 06:44:46;;;;;;;;;3.25;3.25;;;;;11.87;65.44;101999.59;5014521;28;45381;-66
2023/05/16 06:47:11;;;;;;;;;6.50;3.25;;;;;11.96;65.41;102008.31;5014321;28;45320;-66
2023/05/16 06:49:36;;;;;;;;;5.25;2.00;;;;;12.05;64.34;102014.41;5030005;28;45341;-66
2023/05/16 06:52:02;;;;;;;;;4.75;3.00;;;;;12.21;63.89;102017.78;5014192;27;45332;-66
2023/05/16 06:54:27;;;;;;;;;4.00;2.25;;;;;12.30;63.66;102009.78;5139299;27;45484;-66
2023/05/16 06:56:53;;;;;;;;;5.50;2.00;;;;;12.47;63.53;102010.47;5139259;27;45373;-66
2023/05/16 06:59:18;;;;;;;;;4.00;2.00;;;;;12.55;62.99;102005.13;5139535;27;45281;-66
2023/05/16 07:01:43;;;;;;;;;3.00;1.50;;;;;12.57;62.76;102010.41;5139704;27;45268;-66
2023/05/16 07:04:09;;;;;;;;;5.75;4.75;;;;;12.68;63.01;102011.16;5138777;27;46389;-66
2023/05/16 07:06:34;;;;;;;;;10.00;8.00;;;;;13.19;63.29;102019.34;5139120;27;45325;-66
2023/05/16 07:09:01;;;;;;;;;4.75;2.00;;;;;14.03;60.26;102016.38;5139397;27;45382;-66
2023/05/16 07:11:26;;;;;;;;;5.75;2.50;;;;;14.15;58.19;101998.53;5139504;27;45358;-66
2023/05/16 07:13:51;;;;;;;;;4.75;2.25;;;;;14.50;58.34;102003.16;5139196;27;45820;-66
2023/05/16 07:16:17;;;;;;;;;2.50;2.00;;;;;14.89;57.01;102013.94;5139014;27;45417;-67
2023/05/16 07:18:42;;;;;;;;;2.25;1.25;;;;;14.95;56.36;102016.44;5139077;27;45315;-66
2023/05/16 07:21:07;;;;;;;;;3.50;2.00;;;;;14.69;56.08;102010.81;5139415;27;45210;-66
2023/05/16 07:23:33;;;;;;;;;2.75;1.75;;;;;14.50;56.52;102023.50;5139069;27;45514;-66
2023/05/16 07:25:58;;;;;;;;;4.25;3.00;;;;;14.28;56.71;102016.81;5138912;27;45246;-66
2023/05/16 07:28:23;;;;;;;;;2.25;2.25;;;;;14.15;57.39;102007.34;5121148;27;45489;-66
2023/05/16 07:30:49;;;;;;;;;3.50;1.75;;;;;14.30;57.16;102030.03;5143110;27;45453;-66
2023/05/16 07:33:14;;;;;;;;;3.00;3.00;;;;;14.21;57.34;102019.59;5141617;27;46287;-66
2023/05/16 07:35:40;;;;;;;;;5.75;2.00;;;;;14.11;56.86;102021.53;5142768;27;45268;-66
2023/05/16 07:38:05;;;;;;;;;2.00;1.00;;;;;14.11;56.30;102040.06;5142669;27;45427;-66
2023/05/16 07:40:31;;;;;;;;;1.00;1.00;;;;;14.13;56.09;102038.28;5142632;27;45527;-66
2023/05/16 07:42:56;;;;;;;;;2.25;2.25;;;;;14.12;55.95;102039.19;5142232;27;47279;-67
2023/05/16 07:45:21;;;;;;;;;3.25;2.00;;;;;14.18;56.12;102043.50;5142336;27;45747;-66
2023/05/16 07:47:47;;;;;;;;;6.50;2.00;;;;;14.21;55.10;102039.00;5142520;27;45406;-67
2023/05/16 07:50:12;;;;;;;;;2.25;2.00;;;;;14.48;55.87;102042.09;5142568;27;45414;-66
2023/05/16 07:52:38;;;;;;;;;1.75;1.75;;;;;14.53;55.32;102021.66;5142204;27;45347;-69
2023/05/16 07:55:03;;;;;;;;;2.50;0.50;;;;;15.17;55.07;102041.66;5142275;27;45392;-69
2023/05/16 07:57:29;;;;;;;;;2.75;2.00;;;;;15.30;52.83;102040.50;5142277;27;45390;-70
2023/05/16 07:59:54;;;;;;;;;2.00;1.00;;;;;15.26;53.98;102022.88;5142666;27;45423;-69
2023/05/16 08:02:23;;;;;;;;;2.00;0.75;;;;;15.49;52.61;102025.94;5141996;27;46659;-69
2023/05/16 08:04:49;;;;;;;;;2.50;1.50;;;;;15.55;52.33;102034.63;5141775;27;45413;-69
2023/05/16 08:07:14;;;;;;;;;1.25;1.25;;;;;15.47;52.16;102024.22;5142298;27;45334;-67
2023/05/16 08:09:40;;;;;;;;;4.50;1.25;;;;;15.45;52.42;102010.97;5142330;27;45444;-71
2023/05/16 08:12:06;;;;;;;;;4.00;1.50;;;;;16.00;51.85;102027.41;5142094;27;45615;-71
2023/05/16 08:14:31;;;;;;;;;2.75;1.50;;;;;16.63;51.16;102042.63;5142003;27;45551;-70
2023/05/16 08:17:00;;;;;;;;;2.75;2.75;;;;;16.78;51.94;102030.69;5141832;27;45410;-70
2023/05/16 08:19:25;;;;;;;;;3.00;2.00;;;;;16.83;51.61;102044.72;5142179;27;45457;-67
2023/05/16 08:21:51;;;;;;;;;3.75;3.50;;;;;16.69;51.02;102032.66;5141715;27;46402;-70
2023/05/16 08:24:16;;;;;;;;;6.50;2.00;;;;;16.69;50.08;102042.44;5141987;27;45253;-72
2023/05/16 08:26:42;;;;;;;;;2.75;1.00;;;;;16.58;51.53;102044.53;5141845;27;45446;-67
2023/05/16 08:29:07;;;;;;;;;2.00;0.75;;;;;16.43;50.61;102048.47;5141792;27;45486;-67
2023/05/16 08:31:33;;;;;;;;;3.00;2.00;;;;;16.31;50.93;102044.34;5141811;27;46227;-68
2023/05/16 08:34:00;;;;;;;;;4.00;2.75;;;;;16.07;51.58;102044.03;5141521;27;45499;-67
2023/05/16 08:36:26;;;;;;;;;2.00;2.00;;;;;15.89;51.56;102029.44;5141828;27;45600;-67
2023/05/16 08:38:51;;;;;;;;;3.00;2.00;;;;;15.84;51.91;102026.91;5141946;27;45467;-67
2023/05/16 08:41:16;;;;;;;;;2.25;2.25;;;;;15.78;52.66;102040.31;5140410;27;46581;-67
2023/05/16 08:43:42;;;;;;;;;3.00;1.00;;;;;15.64;53.19;102029.09;5141844;27;45444;-67
2023/05/16 08:46:07;;;;;;;;;3.75;1.75;;;;;15.56;53.76;102015.16;5141529;27;45418;-67
2023/05/16 08:48:33;;;;;;;;;3.75;1.75;;;;;15.58;53.44;102035.47;5141801;27;45524;-67
2023/05/16 08:51:01;;;;;;;;;3.75;2.75;;;;;15.47;52.71;102027.72;5141441;27;45380;-68
2023/05/16 08:53:35;;;;;;;;;3.00;3.00;;;;;15.41;53.87;102030.53;5141309;27;45295;-67
2023/05/16 08:56:03;;;;;;;;;2.25;2.25;;;;;15.50;53.61;102035.59;5141722;27;45286;-67
2023/05/16 08:58:28;;;;;;;;;1.75;1.75;;;;;15.48;53.19;102010.00;5141610;27;45447;-67
2023/05/16 09:00:55;;;;;;;;;9.00;8.00;;;;;15.70;53.15;102034.28;5141050;27;47264;-67
2023/05/16 09:03:23;;;;;;;;;3.00;2.75;;;;;15.87;52.85;102028.59;5141246;27;45396;-67
2023/05/16 09:05:48;;;;;;;;;2.25;2.25;;;;;15.91;52.59;102016.97;5141422;27;45360;-67
2023/05/16 09:08:14;;;;;;;;;4.00;3.00;;;;;16.06;52.36;102017.53;5141518;27;45260;-67
2023/05/16 09:10:40;;;;;;;;;2.50;2.25;;;;;16.16;51.92;102027.00;5140935;27;45323;-67
2023/05/16 09:13:05;;;;;;;;;6.50;4.75;;;;;16.29;52.45;102032.88;5140963;27;45374;-67
2023/05/16 09:15:32;;;;;;;;;3.00;2.00;;;;;16.30;51.40;102027.50;5141372;27;45419;-67
2023/05/16 09:17:59;;;;;;;;;8.67;8.67;;;;;16.51;51.34;102039.38;5141125;27;45514;-68
2023/05/16 09:20:25;;;;;;;;;3.50;3.50;;;;;16.45;50.94;102020.91;5140977;27;46267;-68
2023/05/16 09:22:55;;;;;;;;;2.00;2.00;;;;;16.48;50.75;102033.25;5140944;27;45451;-68
2023/05/16 09:25:23;;;;;;;;;2.50;1.00;;;;;16.42;49.89;102030.78;5140940;27;45348;-68
2023/05/16 09:27:53;;;;;;;;;2.00;2.00;;;;;16.35;49.69;102022.06;5141173;27;45372;-67
2023/05/16 09:30:23;;;;;;;;;0.25;0.25;;;;;16.81;49.51;102001.34;5140762;27;46399;-67
2023/05/16 09:32:51;;;;;;;;;3.50;3.00;;;;;17.67;48.28;102022.69;5140561;27;45245;-67
2023/05/16 09:35:17;;;;;;;;;1.25;1.25;;;;;18.10;46.35;102033.78;5141006;27;45393;-67
2023/05/16 09:37:44;;;;;;;;;3.00;3.00;;;;;18.31;45.77;102039.31;5141054;27;45459;-67
2023/05/16 09:40:10;;;;;;;;;2.00;2.00;;;;;18.16;45.59;102011.38;5140485;27;47374;-67
2023/05/16 09:42:36;;;;;;;;;4.50;1.50;;;;;18.85;45.79;102000.91;5140639;27;45480;-67
2023/05/16 09:45:02;;;;;;;;;1.00;1.00;;;;;20.70;44.61;102036.19;5140558;27;45443;-67
2023/05/16 09:47:27;;;;;;;;;2.00;1.00;;;;;22.98;42.22;102033.09;5141019;27;45439;-67
2023/05/16 09:49:53;;;;;;;;;2.50;1.00;;;;;25.16;38.46;102029.25;5140191;27;45413;-67
2023/05/16 09:52:19;;;;;;;;;1.00;1.00;;;;;27.02;34.55;102028.44;5140057;27;45406;-67
2023/05/16 09:54:48;;;;;;;;;2.00;2.00;;;;;28.74;32.14;102022.72;5140706;27;45247;-67
2023/05/16 09:57:18;;;;;;;;;2.25;1.00;;;;;29.94;35.95;102032.88;5140693;27;45394;-67
2023/05/16 09:59:44;;;;;;;;;0.00;0.00;;;;;30.06;30.01;102026.38;5140190;27;46317;-67
2023/05/16 10:02:11;;;;;;;;;0.25;0.00;;;;;30.04;28.53;102040.09;5140237;27;45245;-67
2023/05/16 10:04:37;;;;;;;;;2.00;0.00;;;;;30.54;29.86;102038.56;5140218;27;45620;-67
2023/05/16 10:07:03;;;;;;;;;2.00;2.00;;;;;31.48;27.27;102024.75;5140520;27;45647;-67
2023/05/16 10:09:31;;;;;;;;;5.33;5.33;;;;;31.80;31.21;102033.69;5140007;27;45471;-67
2023/05/16 10:12:02;;;;;;;;;2.00;2.00;;;;;32.31;27.60;102021.63;5140048;27;45256;-68
2023/05/16 10:14:28;;;;;;;;;1.00;1.00;;;;;32.56;25.56;102028.31;5140259;27;45369;-67
2023/05/16 10:16:56;;;;;;;;;4.00;3.67;;;;;32.20;27.69;102038.13;5140217;27;45404;-68
2023/05/16 10:19:24;;;;;;;;;2.00;2.00;;;;;32.51;27.26;102027.88;5139747;27;46190;-68
2023/05/16 10:21:53;;;;;;;;;2.33;2.33;;;;;32.28;28.00;102038.28;5121468;27;45334;-68
2023/05/16 10:24:30;;;;;;;;;6.33;5.00;;;;;32.10;26.28;102038.13;5139999;27;45342;-68
2023/05/16 10:26:55;;;;;;;;;3.00;3.00;;;;;31.24;27.58;102025.16;5140186;27;45374;-68
2023/05/16 10:29:21;;;;;;;;;3.00;1.33;;;;;30.98;27.36;102027.47;5139954;27;45367;-68
2023/05/16 10:31:47;;;;;;;;;2.67;0.00;;;;;31.03;28.26;102036.13;5139855;27;45234;-67
2023/05/16 10:34:14;;;;;;;;;1.00;1.00;;;;;30.68;25.98;102037.38;5139979;27;45493;-67
2023/05/16 10:36:40;;;;;;;;;1.67;1.00;;;;;30.45;25.72;102017.66;5140193;27;45372;-67
2023/05/16 10:39:06;;;;;;;;;1.33;0.00;;;;;30.56;26.34;102021.13;5139694;27;46439;-67
2023/05/16 10:41:33;;;;;;;;;1.00;0.00;;;;;31.18;27.28;102029.31;5139985;27;45831;-66
2023/05/16 10:43:58;;;;;;;;;2.33;1.00;;;;;31.63;25.84;102038.00;5139938;27;45297;-68
2023/05/16 10:46:26;;;;;;;;;2.67;0.67;;;;;31.83;24.20;102031.53;5139604;27;45532;-67
2023/05/16 10:48:51;;;;;;;;;2.00;2.00;;;;;31.87;24.56;102021.22;5139552;27;47084;-68
2023/05/16 10:51:22;;;;;;;;;3.33;2.33;;;;;31.55;25.74;102035.94;5139384;27;45419;-69
2023/05/16 10:53:52;;;;;;;;;1.00;0.33;;;;;30.83;25.38;102038.75;5139865;27;45439;-68
2023/05/16 10:56:25;;;;;;;;;0.00;0.00;;;;;29.71;26.54;102032.91;5139917;27;45373;-68
2023/05/16 10:58:53;;;;;;;;;0.00;0.00;;;;;28.90;25.29;102030.47;5139469;27;45263;-68
2023/05/16 11:01:28;;;;;;;;;1.00;1.00;;;;;28.17;27.00;102021.72;5139199;27;45502;-69
2023/05/16 11:04:00;;;;;;;;;1.33;0.33;;;;;27.53;27.14;102044.53;5138221;27;45244;-68
2023/05/16 11:06:44;;;;;;;;;0.00;0.00;;;;;26.63;27.92;102033.84;5139684;27;45508;-68
2023/05/16 11:09:09;;;;;;;;;0.00;0.00;;;;;25.86;27.71;102033.69;5139425;27;46353;-68
2023/05/16 11:11:46;;;;;;;;;1.67;0.33;;;;;25.06;29.12;102033.50;5139325;27;45270;-68
2023/05/16 11:14:25;;;;;;;;;1.00;1.00;;;;;24.35;30.67;102033.31;5139453;27;45453;-68
2023/05/16 11:16:53;;;;;;;;;0.33;0.33;;;;;23.71;31.15;102014.63;5139616;27;45229;-68
2023/05/16 11:19:32;;;;;;;;;1.00;1.00;;;;;23.22;31.37;102044.31;5138968;27;45642;-68
2023/05/16 11:22:17;;;;;;;;;1.00;1.00;;;;;22.56;31.18;102009.31;5139260;27;45208;-68
2023/05/16 11:24:56;;;;;;;;;1.33;0.00;;;;;22.39;32.10;102033.50;5139305;27;45279;-68
2023/05/16 11:27:29;;;;;;;;;2.00;0.00;;;;;22.07;32.77;102034.19;5139612;27;45144;-67